Home > Products > Valid Products > MTR

000
SAUS44 KLCH 280654
MTRP92
METAR KP92 280653Z AUTO 00000KT 22/19 A2996 RMK AO1 SLP146 T02220194





000
SAUS44 KLCH 280654
MTRP92
METAR KP92 280653Z AUTO 00000KT 22/19 A2996 RMK AO1 SLP146 T02220194





000
SAUS44 KLCH 280554
MTRP92
METAR KP92 280553Z AUTO 00000KT 22/18 A2996 RMK AO1 SLP146 T02220178
10278 20222 403060189 58005





000
SAUS44 KLCH 280554
MTRP92
METAR KP92 280553Z AUTO 00000KT 22/18 A2996 RMK AO1 SLP146 T02220178
10278 20222 403060189 58005





000
SAUS44 KLCH 280454
MTRP92
METAR KP92 280453Z AUTO 00000KT 22/17 A2998 RMK AO1 SLP151 T02220172





000
SAUS44 KLCH 280354
MTRP92
METAR KP92 280353Z AUTO 00000KT 23/17 A2998 RMK AO1 SLP153 T02280172





000
SAUS44 KLCH 280254
MTRP92
METAR KP92 280253Z AUTO 00000KT 23/17 A2998 RMK AO1 SLP151 T02330172
53004





000
SAUS44 KLCH 280254
MTRP92
METAR KP92 280253Z AUTO 00000KT 23/17 A2998 RMK AO1 SLP151 T02330172
53004





000
SAUS44 KLCH 280154
MTRP92
METAR KP92 280153Z AUTO 00000KT 24/18 A2997 RMK AO1 SLP148 T02390178





000
SAUS44 KLCH 280054
MTRP92
METAR KP92 280053Z AUTO 00000KT 25/18 A2996 RMK AO1 SLP145 T02500178





000
SAUS44 KLCH 280054
MTRP92
METAR KP92 280053Z AUTO 00000KT 25/18 A2996 RMK AO1 SLP145 T02500178





000
SAUS44 KLCH 272354
MTRP92
METAR KP92 272353Z AUTO 00000KT 28/17 A2997 RMK AO1 SLP147 T02830167
10306 20283 53004





000
SAUS44 KLCH 272354
MTRP92
METAR KP92 272353Z AUTO 00000KT 28/17 A2997 RMK AO1 SLP147 T02830167
10306 20283 53004





000
SAUS44 KLCH 272254
MTRP92
METAR KP92 272253Z AUTO VRB04KT 29/15 A2995 RMK AO1 SLP142 T02940150





000
SAUS44 KLCH 272154
MTRP92
METAR KP92 272153Z AUTO 35006KT 30/14 A2994 RMK AO1 SLP139 T03000139





000
SAUS44 KLCH 272054
MTRP92
METAR KP92 272053Z AUTO VRB04KT 30/13 A2995 RMK AO1 SLP142 T03000133
56018





000
SAUS44 KLCH 272054
MTRP92
METAR KP92 272053Z AUTO VRB04KT 30/13 A2995 RMK AO1 SLP142 T03000133
56018





000
SAUS44 KLCH 271954
MTRP92
METAR KP92 271953Z AUTO 34006KT 29/13 A2997 RMK AO1 SLP147 T02940133





000
SAUS44 KLCH 271854
MTRP92
METAR KP92 271853Z AUTO VRB04KT 29/13 A2999 RMK AO1 SLP153 T02940128





000
SAUS44 KLCH 271754
MTRP92
METAR KP92 271753Z AUTO 29/13 A3001 RMK AO1 SLP161 T02890133 10289
20189 58010





000
SAUS44 KLCH 271754
MTRP92
METAR KP92 271753Z AUTO 29/13 A3001 RMK AO1 SLP161 T02890133 10289
20189 58010





000
SAUS44 KLCH 271654
MTRP92
METAR KP92 271653Z AUTO VRB06KT 28/13 A3003 RMK AO1 SLP168 T02830133





000
SAUS44 KLCH 271554
MTRP92
METAR KP92 271553Z AUTO VRB04KT 27/14 A3004 RMK AO1 SLP171 T02720144





000
SAUS44 KLCH 271554
MTRP92
METAR KP92 271553Z AUTO VRB04KT 27/14 A3004 RMK AO1 SLP171 T02720144





000
SAUS44 KLCH 271454
MTRP92
METAR KP92 271453Z AUTO VRB04KT 26/19 A3004 RMK AO1 SLP171 T02610189
53008





000
SAUS44 KLCH 271454
MTRP92
METAR KP92 271453Z AUTO VRB04KT 26/19 A3004 RMK AO1 SLP171 T02610189
53008





000
SAUS44 KLCH 271354
MTRP92
METAR KP92 271353Z AUTO VRB03KT 23/18 A3003 RMK AO1 SLP168 T02330178





000
SAUS44 KLCH 271254
MTRP92
METAR KP92 271253Z AUTO VRB03KT 21/17 A3002 RMK AO1 SLP165 T02060172





000
SAUS44 KLCH 271254
MTRP92
METAR KP92 271253Z AUTO VRB03KT 21/17 A3002 RMK AO1 SLP165 T02060172





000
SAUS44 KLCH 271154
MTRP92
METAR KP92 271153Z AUTO 00000KT 19/16 A3001 RMK AO1 SLP163 T01940161
10222 20189 51007





000
SAUS44 KLCH 271154
MTRP92
METAR KP92 271153Z AUTO 00000KT 19/16 A3001 RMK AO1 SLP163 T01940161
10222 20189 51007





000
SAUS44 KLCH 271054
MTRP92
METAR KP92 271053Z AUTO VRB03KT 19/16 A3001 RMK AO1 SLP160 T01940161





000
SAUS44 KLCH 270954
MTRP92
METAR KP92 270953Z AUTO 00000KT 20/17 A3000 RMK AO1 SLP159 T02000167





000
SAUS44 KLCH 270954
MTRP92
METAR KP92 270953Z AUTO 00000KT 20/17 A3000 RMK AO1 SLP159 T02000167





000
SAUS44 KLCH 270854
MTRP92
METAR KP92 270853Z AUTO 00000KT 21/17 A2999 RMK AO1 SLP155 T02110172
56004





000
SAUS44 KLCH 270754
MTRP92
METAR KP92 270753Z AUTO 00000KT 21/18 A2999 RMK AO1 SLP156 T02060178





000
SAUS44 KLCH 270754
MTRP92
METAR KP92 270753Z AUTO 00000KT 21/18 A2999 RMK AO1 SLP156 T02060178





000
SAUS44 KLCH 270654
MTRP92
METAR KP92 270653Z AUTO 00000KT 22/18 A3000 RMK AO1 SLP157 T02170178





000
SAUS44 KLCH 270654
MTRP92
METAR KP92 270653Z AUTO 00000KT 22/18 A3000 RMK AO1 SLP157 T02170178





000
SAUS44 KLCH 270554
MTRP92
METAR KP92 270553Z AUTO 00000KT 22/17 A3000 RMK AO1 SLP159 T02220172
10278 20222 403000200 58001





000
SAUS44 KLCH 270554
MTRP92
METAR KP92 270553Z AUTO 00000KT 22/17 A3000 RMK AO1 SLP159 T02220172
10278 20222 403000200 58001





000
SAUS44 KLCH 270454
MTRP92
METAR KP92 270453Z AUTO 34004KT 24/17 A3000 RMK AO1 SLP159 T02440172





000
SAUS44 KLCH 270454
MTRP92
METAR KP92 270453Z AUTO 34004KT 24/17 A3000 RMK AO1 SLP159 T02440172





000
SAUS44 KLCH 270355
MTRP92
METAR KP92 270353Z AUTO 00000KT 24/19 A3001 RMK AO1 SLP161 T02390189





000
SAUS44 KLCH 270254
MTRP92
METAR KP92 270253Z AUTO 00000KT 23/19 A3001 RMK AO1 SLP161 T02330189
53005





000
SAUS44 KLCH 270254
MTRP92
METAR KP92 270253Z AUTO 00000KT 23/19 A3001 RMK AO1 SLP161 T02330189
53005





000
SAUS44 KLCH 270154
MTRP92
METAR KP92 270153Z AUTO 00000KT 24/18 A3000 RMK AO1 SLP158 T02440183





000
SAUS44 KLCH 270054
MTRP92
METAR KP92 270053Z AUTO 00000KT 25/18 A2999 RMK AO1 SLP155 T02500178





000
SAUS44 KLCH 270054
MTRP92
METAR KP92 270053Z AUTO 00000KT 25/18 A2999 RMK AO1 SLP155 T02500178





000
SAUS44 KLCH 262354
MTRP92
METAR KP92 262353Z AUTO 00000KT 28/17 A2999 RMK AO1 SLP155 T02780167
10300 20278 56009





000
SAUS44 KLCH 262354
MTRP92
METAR KP92 262353Z AUTO 00000KT 28/17 A2999 RMK AO1 SLP155 T02780167
10300 20278 56009





000
SAUS44 KLCH 262254
MTRP92
METAR KP92 262253Z AUTO VRB06KT 29/14 A3000 RMK AO1 SLP157 T02940144





000
SAUS44 KLCH 262154
MTRP92
METAR KP92 262153Z AUTO VRB03KT 30/14 A3001 RMK AO1 SLP160 T03000139





000
SAUS44 KLCH 262154
MTRP92
METAR KP92 262153Z AUTO VRB03KT 30/14 A3001 RMK AO1 SLP160 T03000139





000
SAUS44 KLCH 262054
MTRP92
METAR KP92 262053Z AUTO 36006KT 30/13 A3002 RMK AO1 SLP164 T03000133
58016





000
SAUS44 KLCH 262054
MTRP92
METAR KP92 262053Z AUTO 36006KT 30/13 A3002 RMK AO1 SLP164 T03000133
58016





000
SAUS44 KLCH 261954
MTRP92
METAR KP92 261953Z AUTO VRB03KT 30/12 A3003 RMK AO1 SLP169 T03000122





000
SAUS44 KLCH 261954
MTRP92
METAR KP92 261953Z AUTO VRB03KT 30/12 A3003 RMK AO1 SLP169 T03000122





000
SAUS44 KLCH 261854
MTRP92
METAR KP92 261853Z AUTO 35009KT 29/12 A3005 RMK AO1 SLP175 T02940117





000
SAUS44 KLCH 261854
MTRP92
METAR KP92 261853Z AUTO 35009KT 29/12 A3005 RMK AO1 SLP175 T02940117





000
SAUS44 KLCH 261754
MTRP92
METAR KP92 261753Z AUTO VRB05KT 29/13 A3006 RMK AO1 SLP180 T02890133
10294 20200 50001





000
SAUS44 KLCH 261754
MTRP92
METAR KP92 261753Z AUTO VRB05KT 29/13 A3006 RMK AO1 SLP180 T02890133
10294 20200 50001





000
SAUS44 KLCH 261654
MTRP92
METAR KP92 261653Z AUTO 36007KT 320V040 28/15 A3007 RMK AO1 SLP182
T02830150





000
SAUS44 KLCH 261554
MTRP92
METAR KP92 261553Z AUTO VRB04KT 28/16 A3007 RMK AO1 SLP183 T02780161





000
SAUS44 KLCH 261454
MTRP92
METAR KP92 261453Z AUTO VRB03KT 26/18 A3006 RMK AO1 SLP179 T02610183
51005





000
SAUS44 KLCH 261454
MTRP92
METAR KP92 261453Z AUTO VRB03KT 26/18 A3006 RMK AO1 SLP179 T02610183
51005





000
SAUS44 KLCH 261354
MTRP92
METAR KP92 261353Z AUTO VRB03KT 24/18 A3006 RMK AO1 SLP179 T02390178





000
SAUS44 KLCH 261354
MTRP92
METAR KP92 261353Z AUTO VRB03KT 24/18 A3006 RMK AO1 SLP179 T02390178





000
SAUS44 KLCH 261254
MTRP92
METAR KP92 261253Z AUTO VRB03KT 21/17 A3006 RMK AO1 SLP177 T02110167





000
SAUS44 KLCH 261254
MTRP92
METAR KP92 261253Z AUTO VRB03KT 21/17 A3006 RMK AO1 SLP177 T02110167





000
SAUS44 KLCH 261154
MTRP92
METAR KP92 261153Z AUTO 00000KT 20/17 A3005 RMK AO1 SLP174 T02000172
10244 20200 53017





000
SAUS44 KLCH 261154
MTRP92
METAR KP92 261153Z AUTO 00000KT 20/17 A3005 RMK AO1 SLP174 T02000172
10244 20200 53017





000
SAUS44 KLCH 261054
MTRP92
METAR KP92 261053Z AUTO 00000KT 21/18 A3003 RMK AO1 SLP169 T02060178





000
SAUS44 KLCH 260954
MTRP92
METAR KP92 260953Z AUTO 00000KT 21/18 A3001 RMK AO1 SLP161 T02110178





000
SAUS44 KLCH 260854
MTRP92
METAR KP92 260853Z AUTO VRB03KT 22/18 A3000 RMK AO1 SLP157 T02170178
53001





000
SAUS44 KLCH 260754
MTRP92
METAR KP92 260753Z AUTO 00000KT 22/18 A2999 RMK AO1 SLP154 T02170178





000
SAUS44 KLCH 260754
MTRP92
METAR KP92 260753Z AUTO 00000KT 22/18 A2999 RMK AO1 SLP154 T02170178





000
SAUS44 KLCH 260654
MTRP92
METAR KP92 260653Z AUTO 00000KT 23/18 A2998 RMK AO1 SLP152 T02280178





000
SAUS44 KLCH 260554
MTRP92
METAR KP92 260553Z AUTO VRB03KT 24/18 A3000 RMK AO1 SLP157 T02390183
10289 20239 403220239 58005





000
SAUS44 KLCH 260554
MTRP92
METAR KP92 260553Z AUTO VRB03KT 24/18 A3000 RMK AO1 SLP157 T02390183
10289 20239 403220239 58005





000
SAUS44 KLCH 260454
MTRP92
METAR KP92 260453Z AUTO 00000KT 24/20 A3000 RMK AO1 SLP160 T02440200





000
SAUS44 KLCH 260354
MTRP92
METAR KP92 260353Z AUTO 36003KT 25/20 A3001 RMK AO1 SLP162 T02500200





000
SAUS44 KLCH 260254
MTRP92
METAR KP92 260253Z AUTO 34003KT 26/19 A3001 RMK AO1 SLP162 T02610194
51016





000
SAUS44 KLCH 260154
MTRP92
METAR KP92 260153Z AUTO VRB03KT 27/19 A3000 RMK AO1 SLP159 T02670194





000
SAUS44 KLCH 260054
MTRP92
METAR KP92 260053Z AUTO VRB04KT 28/19 A2999 RMK AO1 SLP154 T02780194





000
SAUS44 KLCH 260054
MTRP92
METAR KP92 260053Z AUTO VRB04KT 28/19 A2999 RMK AO1 SLP154 T02780194





000
SAUS44 KLCH 252354
MTRP92
METAR KP92 252353Z AUTO 35004KT 29/20 A2996 RMK AO1 SLP145 T02890200
10322 20289 56006





000
SAUS44 KLCH 252354
MTRP92
METAR KP92 252353Z AUTO 35004KT 29/20 A2996 RMK AO1 SLP145 T02890200
10322 20289 56006





000
SAUS44 KLCH 252254
MTRP92
METAR KP92 252253Z AUTO 35007KT 30/19 A2996 RMK AO1 SLP146 T03000189





000
SAUS44 KLCH 252254
MTRP92
METAR KP92 252253Z AUTO 35007KT 30/19 A2996 RMK AO1 SLP146 T03000189





000
SAUS44 KLCH 252154
MTRP92
METAR KP92 252153Z AUTO VRB06KT 31/20 A2998 RMK AO1 SLP150 T03110200





000
SAUS44 KLCH 252054
MTRP92
METAR KP92 252053Z AUTO 36007KT 310V020 31/21 A2998 RMK AO1 SLP152
T03110211 56014





000
SAUS44 KLCH 251954
MTRP92
METAR KP92 251953Z AUTO 36006KT 32/21 A2999 RMK AO1 SLP154 T03170211





000
SAUS44 KLCH 251954
MTRP92
METAR KP92 251953Z AUTO 36006KT 32/21 A2999 RMK AO1 SLP154 T03170211





000
SAUS44 KLCH 251854
MTRP92
METAR KP92 251853Z AUTO VRB05KT 32/22 A3001 RMK AO1 SLP162 T03170217





000
SAUS44 KLCH 251754
MTRP92
METAR KP92 251753Z AUTO VRB05KT 31/21 A3002 RMK AO1 SLP166 T03110211
10311 20250 58003





000
SAUS44 KLCH 251654
MTRP92
METAR KP92 251653Z AUTO VRB04KT 31/21 A3003 RMK AO1 SLP169 T03060211





000
SAUS44 KLCH 251554
MTRP92
METAR KP92 251553Z AUTO VRB03KT 30/21 A3003 RMK AO1 SLP168 T03000211





000
SAUS44 KLCH 251454
MTRP92
METAR KP92 251453Z AUTO VRB03KT 28/22 A3003 RMK AO1 SLP169 T02830217
51012





000
SAUS44 KLCH 251454
MTRP92
METAR KP92 251453Z AUTO VRB03KT 28/22 A3003 RMK AO1 SLP169 T02830217
51012





000
SAUS44 KLCH 251354
MTRP92
METAR KP92 251353Z AUTO 00000KT 27/22 A3003 RMK AO1 SLP167 T02720222





000
SAUS44 KLCH 251354
MTRP92
METAR KP92 251353Z AUTO 00000KT 27/22 A3003 RMK AO1 SLP167 T02720222





000
SAUS44 KLCH 251254
MTRP92
METAR KP92 251253Z AUTO 00000KT 26/23 A3001 RMK AO1 SLP162 T02610228





000
SAUS44 KLCH 251254
MTRP92
METAR KP92 251253Z AUTO 00000KT 26/23 A3001 RMK AO1 SLP162 T02610228





000
SAUS44 KLCH 251154
MTRP92
METAR KP92 251153Z AUTO 00000KT 25/23 A3000 RMK AO1 SLP157 T02500228
10283 20250 53017





000
SAUS44 KLCH 251154
MTRP92
METAR KP92 251153Z AUTO 00000KT 25/23 A3000 RMK AO1 SLP157 T02500228
10283 20250 53017





000
SAUS44 KLCH 251054
MTRP92
METAR KP92 251053Z AUTO VRB03KT 26/23 A2998 RMK AO1 SLP150 T02560228





000
SAUS44 KLCH 251054
MTRP92
METAR KP92 251053Z AUTO VRB03KT 26/23 A2998 RMK AO1 SLP150 T02560228





000
SAUS44 KLCH 250954
MTRP92
METAR KP92 250953Z AUTO VRB03KT 26/24 A2997 RMK AO1 SLP147 T02610239





000
SAUS44 KLCH 250854
MTRP92
METAR KP92 250853Z AUTO VRB03KT 27/24 A2995 RMK AO1 SLP141 T02670239
57014





000
SAUS44 KLCH 250754
MTRP92
METAR KP92 250753Z AUTO VRB03KT 27/24 A2996 RMK AO1 SLP143 T02720244





000
SAUS44 KLCH 250754
MTRP92
METAR KP92 250753Z AUTO VRB03KT 27/24 A2996 RMK AO1 SLP143 T02720244





    US Dept of Commerce
    National Oceanic and Atmospheric Administration
    National Weather Service
    1325 East West Highway
    Silver Spring, MD 20910
    Page Author: NWS Internet Services Team
Disclaimer
Information Quality
Credits
Glossary
Privacy Policy
Freedom of Information Act (FOIA)
About Us
Career Opportunities